To NAV CANADA Home Page Login to a new session Search on AWWS site Feedback and Comments Disclaimer Vers la page française équivalente Tips FAQ What's new on the site To the Forecasts and Observations / NOTAM section To "File a Flight Plan" website Publications and other links Update of the User's profile FIC Telephone Numbers My Weather Data Folder Route Weather Data Regional Weather Data Local Weather Data To the Forecasts and Observations / NOTAM section
Request Generated 05/25/2017 at 01:10:05 UTC . Weather information available at that time is displayed.

METAR/TAF

SALLUIT/QC    

LWIS CYZG 250100Z AUTO 04007KT M04/M05 A2993=
LWIS CYZG 250000Z AUTO 03007KT M03/M05 A2992=
LWIS CYZG 242300Z AUTO 02010KT M03/M05 A2991=

*** REMARK        : Forecast period has ended; this was the last TAF issued
*** REMARQUE : La période de prévision est échue; ceci était le dernier TAF qui a été émis
TAF CYZG 241338Z 2414/2421 18007KT P6SM SCT010 BKN050 TEMPO 2414/2418
P6SM -SN BKN008 OVC050
FM241800 34008KT P6SM SCT015 BKN050 TEMPO 2418/2421 P6SM -SN
BKN015 OVC050
RMK NXT FCST WILL BE ISSUED AT 251345Z=
Your time UTC time
Weather data provided by Environment Canada and NAV CANADA